Wapanucka, Oklahoma
Current Conditions -  °F | °C
As of 11:15 AM on Sunday 23 Nov 2014 (Local Time) from KAQR Reporting Station
Scattered Clouds Scattered Clouds  
Wind Chill: 64°   Ceiling: Unl
Heat Index: 64°   Visibility: 10mi
Dew Point: 55°   Wind: 9mph
Humidity: 73%   Direction: 190°S
Pressure: 29.42"   Gusts: NA
Location:  34.37°N, 96.42°W
Report Text: KAQR 231715Z AUTO 19008KT 10SM SCT018 18/13 A2942 RMK AO2
Loading
Personal Weather Stations






























Interactive Weather Map New forecast layout! Learn more

10-Day Weather Forecast

Advertisements
Track Severe Weather on mobile